createdAt,value
2019-02-19T00:00:08.541Z,6.40
2019-02-19T00:01:08.533Z,6.50
2019-02-19T00:02:08.530Z,6.60
2019-02-19T00:03:08.518Z,6.20
2019-02-19T00:04:08.504Z,6.80
2019-02-19T00:05:08.496Z,6.00
2019-02-19T00:06:08.508Z,6.60
2019-02-19T00:07:08.476Z,6.90
2019-02-19T00:08:08.473Z,7.00
2019-02-19T00:09:08.463Z,6.40
2019-02-19T00:10:08.450Z,6.70
2019-02-19T00:11:08.443Z,6.50
2019-02-19T00:12:08.443Z,6.90
2019-02-19T00:13:08.431Z,7.10
2019-02-19T00:14:08.425Z,6.00
2019-02-19T00:15:08.745Z,5.90
2019-02-19T00:16:08.403Z,6.10
2019-02-19T00:17:08.396Z,6.20
2019-02-19T00:18:08.384Z,6.50
2019-02-19T00:19:08.378Z,6.50
2019-02-19T00:20:08.381Z,6.70
2019-02-19T00:21:08.364Z,5.90
2019-02-19T00:22:08.359Z,6.60
2019-02-19T00:23:08.350Z,6.20
2019-02-19T00:24:08.339Z,5.90
2019-02-19T00:25:08.329Z,6.50
2019-02-19T00:26:08.325Z,6.40
2019-02-19T00:27:08.320Z,6.30
2019-02-19T00:28:08.304Z,6.20
2019-02-19T00:29:08.297Z,6.40
2019-02-19T00:30:08.285Z,5.90
2019-02-19T00:31:08.278Z,6.90
2019-02-19T00:32:08.275Z,5.90
2019-02-19T00:33:08.266Z,6.60
2019-02-19T00:34:08.256Z,6.50
2019-02-19T00:35:08.248Z,6.40
2019-02-19T00:36:08.235Z,6.90
2019-02-19T00:37:08.227Z,6.40
2019-02-19T00:38:08.220Z,6.20
2019-02-19T00:39:08.213Z,6.10
2019-02-19T00:40:08.210Z,6.50
2019-02-19T00:41:08.200Z,6.10
2019-02-19T00:42:08.188Z,6.50
2019-02-19T00:43:08.180Z,6.70
2019-02-19T00:44:08.177Z,6.50
2019-02-19T00:45:16.281Z,6.60
2019-02-19T00:46:08.157Z,6.00
2019-02-19T00:47:08.151Z,6.30
2019-02-19T00:48:08.135Z,6.90
2019-02-19T00:49:08.128Z,6.90
2019-02-19T00:50:08.123Z,6.60
2019-02-19T00:51:08.110Z,7.40
2019-02-19T00:52:08.109Z,6.40
2019-02-19T00:53:08.100Z,6.40
2019-02-19T00:54:08.094Z,6.70
2019-02-19T00:55:08.085Z,6.90
2019-02-19T00:56:08.115Z,7.30
2019-02-19T00:57:08.065Z,5.70
2019-02-19T00:58:08.063Z,6.60
2019-02-19T00:59:08.052Z,6.50
2019-02-19T01:00:08.040Z,6.70
2019-02-19T01:01:08.032Z,6.70
2019-02-19T01:02:08.019Z,7.10
2019-02-19T01:03:08.013Z,6.60
2019-02-19T01:04:08.009Z,6.80
2019-02-19T01:05:08.000Z,6.40
2019-02-19T01:06:07.992Z,6.70
2019-02-19T01:07:07.984Z,6.10
2019-02-19T01:08:07.971Z,6.40
2019-02-19T01:09:07.961Z,7.40
2019-02-19T01:10:07.957Z,7.30
2019-02-19T01:11:07.949Z,6.60
2019-02-19T01:12:07.946Z,7.20
2019-02-19T01:13:07.941Z,6.70
2019-02-19T01:14:07.923Z,7.00
2019-02-19T01:15:07.915Z,6.40
2019-02-19T01:16:07.914Z,7.00
2019-02-19T01:17:07.903Z,7.30
2019-02-19T01:18:07.894Z,6.90
2019-02-19T01:19:07.884Z,6.70
2019-02-19T01:20:07.913Z,6.40
2019-02-19T01:21:07.861Z,6.80
2019-02-19T01:22:07.858Z,6.50
2019-02-19T01:23:07.851Z,6.50
2019-02-19T01:24:07.846Z,6.30
2019-02-19T01:25:07.836Z,7.00
2019-02-19T01:26:07.825Z,6.20
2019-02-19T01:27:07.819Z,5.80
2019-02-19T01:28:07.807Z,6.30
2019-02-19T01:29:07.797Z,6.30
2019-02-19T01:30:07.792Z,6.30
2019-02-19T01:31:07.784Z,6.20
2019-02-19T01:32:07.770Z,6.30
2019-02-19T01:33:07.769Z,6.20
2019-02-19T01:34:07.757Z,5.80
2019-02-19T01:35:07.750Z,5.60
2019-02-19T01:36:07.745Z,5.50
2019-02-19T01:37:07.736Z,6.10
2019-02-19T01:38:07.728Z,6.20
2019-02-19T01:39:07.720Z,5.80
2019-02-19T01:40:07.707Z,6.60
2019-02-19T01:41:07.701Z,6.10
2019-02-19T01:42:07.688Z,5.80
2019-02-19T01:43:07.677Z,6.00
2019-02-19T01:44:07.675Z,6.10
2019-02-19T01:45:07.666Z,6.80
2019-02-19T01:46:07.652Z,6.50
2019-02-19T01:47:07.644Z,5.80
2019-02-19T01:48:07.641Z,5.90
2019-02-19T01:49:07.632Z,6.30
2019-02-19T01:50:07.627Z,6.30
2019-02-19T01:51:07.617Z,6.40
2019-02-19T01:52:07.606Z,6.50
2019-02-19T01:53:07.615Z,6.20
2019-02-19T01:54:07.590Z,6.70
2019-02-19T01:55:07.582Z,6.50
2019-02-19T01:56:07.576Z,6.70
2019-02-19T01:57:07.567Z,6.50
2019-02-19T01:58:07.559Z,6.30
2019-02-19T01:59:07.547Z,6.30
2019-02-19T02:00:07.540Z,6.30
2019-02-19T02:01:07.529Z,6.40
2019-02-19T02:02:07.523Z,7.00
2019-02-19T02:03:07.516Z,7.00
2019-02-19T02:04:07.503Z,7.50
2019-02-19T02:05:07.495Z,7.20
2019-02-19T02:06:07.489Z,6.50
2019-02-19T02:07:07.480Z,7.00
2019-02-19T02:08:07.478Z,6.80
2019-02-19T02:09:07.467Z,7.00
2019-02-19T02:10:07.459Z,7.10
2019-02-19T02:11:07.454Z,7.20
2019-02-19T02:12:07.439Z,7.20
2019-02-19T02:13:07.430Z,8.00
2019-02-19T02:14:07.419Z,7.50
2019-02-19T02:15:07.412Z,7.80
2019-02-19T02:16:07.409Z,8.10
2019-02-19T02:17:07.399Z,7.20
2019-02-19T02:18:07.389Z,7.70
2019-02-19T02:19:07.382Z,7.70
2019-02-19T02:20:07.378Z,8.60
2019-02-19T02:21:07.368Z,8.30
2019-02-19T02:22:07.363Z,8.30
2019-02-19T02:23:07.355Z,7.90
2019-02-19T02:24:07.342Z,9.10
2019-02-19T02:25:07.334Z,8.40
2019-02-19T02:26:07.330Z,9.60
2019-02-19T02:27:07.313Z,8.60
2019-02-19T02:28:07.312Z,9.90
2019-02-19T02:29:07.303Z,8.80
2019-02-19T02:30:07.301Z,9.10
2019-02-19T02:31:07.293Z,10.10
2019-02-19T02:32:07.276Z,10.60
2019-02-19T02:33:07.278Z,10.10
2019-02-19T02:34:07.270Z,10.00
2019-02-19T02:35:07.256Z,10.00
2019-02-19T02:36:07.254Z,9.70
2019-02-19T02:37:07.241Z,10.00
2019-02-19T02:38:07.226Z,10.10
2019-02-19T02:39:07.217Z,10.30
2019-02-19T02:40:07.255Z,9.70
2019-02-19T02:41:07.213Z,10.10
2019-02-19T02:42:07.200Z,9.70
2019-02-19T02:43:07.192Z,10.10
2019-02-19T02:44:07.180Z,9.50
2019-02-19T02:45:07.170Z,10.50
2019-02-19T02:46:07.170Z,10.30
2019-02-19T02:47:07.157Z,9.90
2019-02-19T02:48:07.156Z,10.30
2019-02-19T02:49:07.146Z,10.00
2019-02-19T02:50:07.133Z,10.10
2019-02-19T02:51:07.127Z,10.30
2019-02-19T02:52:07.134Z,10.80
2019-02-19T02:53:07.115Z,10.90
2019-02-19T02:54:07.105Z,11.10
2019-02-19T02:55:07.100Z,10.50
2019-02-19T02:56:07.086Z,11.50
2019-02-19T02:57:07.075Z,11.30
2019-02-19T02:58:07.067Z,11.90
2019-02-19T02:59:07.062Z,12.30
2019-02-19T03:00:07.058Z,11.50
2019-02-19T03:01:07.052Z,11.10
2019-02-19T03:02:07.045Z,12.00
2019-02-19T03:03:07.036Z,12.40
2019-02-19T03:04:07.025Z,11.60
2019-02-19T03:05:07.020Z,12.40
2019-02-19T03:06:07.024Z,12.40
2019-02-19T03:07:07.011Z,12.40
2019-02-19T03:08:06.994Z,13.50
2019-02-19T03:09:06.989Z,12.80
2019-02-19T03:10:06.976Z,12.90
2019-02-19T03:11:06.973Z,12.90
2019-02-19T03:12:06.966Z,13.70
2019-02-19T03:13:06.959Z,13.60
2019-02-19T03:14:06.950Z,13.90
2019-02-19T03:15:06.942Z,13.90
2019-02-19T03:16:06.931Z,14.50
2019-02-19T03:17:06.922Z,13.90
2019-02-19T03:18:06.917Z,13.20
2019-02-19T03:19:06.910Z,14.00
2019-02-19T03:20:06.927Z,13.40
2019-02-19T03:21:06.899Z,14.00
2019-02-19T03:22:06.886Z,14.60
2019-02-19T03:23:06.877Z,13.80
2019-02-19T03:24:06.876Z,13.80
2019-02-19T03:25:06.868Z,14.30
2019-02-19T03:26:06.857Z,14.20
2019-02-19T03:27:06.850Z,14.00
2019-02-19T03:28:06.837Z,14.80
2019-02-19T03:29:06.830Z,13.80
2019-02-19T03:30:06.821Z,14.90
2019-02-19T03:31:06.813Z,14.90
2019-02-19T03:32:06.813Z,15.80
2019-02-19T03:33:06.808Z,15.70
2019-02-19T03:34:06.796Z,15.20
2019-02-19T03:35:06.791Z,15.40
2019-02-19T03:36:06.776Z,15.80
2019-02-19T03:37:06.768Z,16.00
2019-02-19T03:38:06.774Z,16.10
2019-02-19T03:39:06.756Z,15.70
2019-02-19T03:40:07.634Z,15.80
2019-02-19T03:41:06.738Z,15.80
2019-02-19T03:42:06.725Z,15.90
2019-02-19T03:43:06.719Z,16.00
2019-02-19T03:44:06.714Z,17.10
2019-02-19T03:45:06.708Z,16.00
2019-02-19T03:46:12.051Z,16.10
2019-02-19T03:47:06.693Z,16.40
2019-02-19T03:48:06.679Z,16.20
2019-02-19T03:49:06.670Z,15.90
2019-02-19T03:50:06.666Z,15.70
2019-02-19T03:51:06.658Z,16.30
2019-02-19T03:52:06.656Z,16.30
2019-02-19T03:53:06.646Z,16.40
2019-02-19T03:54:06.633Z,16.00
2019-02-19T03:55:06.666Z,17.20
2019-02-19T03:56:06.623Z,16.00
2019-02-19T03:57:06.615Z,16.10
2019-02-19T03:58:06.607Z,16.00
2019-02-19T03:59:06.601Z,16.00
2019-02-19T04:00:06.586Z,16.80
2019-02-19T04:01:06.578Z,16.20
2019-02-19T04:02:06.571Z,15.70
2019-02-19T04:03:06.561Z,16.90
2019-02-19T04:04:06.558Z,16.00
2019-02-19T04:05:06.550Z,16.70
2019-02-19T04:06:06.544Z,16.70
2019-02-19T04:07:06.535Z,16.20
2019-02-19T04:08:06.525Z,16.20
2019-02-19T04:09:06.515Z,16.00
2019-02-19T04:10:06.510Z,16.40
2019-02-19T04:11:06.509Z,16.70
2019-02-19T04:12:06.492Z,17.20
2019-02-19T04:13:06.484Z,16.70
2019-02-19T04:14:06.472Z,16.90
2019-02-19T04:15:06.463Z,16.50
2019-02-19T04:16:06.462Z,15.60
2019-02-19T04:17:06.452Z,16.00
2019-02-19T04:18:06.444Z,16.40
2019-02-19T04:19:06.438Z,16.00
2019-02-19T04:20:06.426Z,16.20
2019-02-19T04:21:06.416Z,16.50
2019-02-19T04:22:06.416Z,16.80
2019-02-19T04:23:06.404Z,16.40
2019-02-19T04:24:06.400Z,15.60
2019-02-19T04:25:06.392Z,16.00
2019-02-19T04:26:06.379Z,16.00
2019-02-19T04:27:06.371Z,15.50
2019-02-19T04:28:06.366Z,15.90
2019-02-19T04:29:06.358Z,15.30
2019-02-19T04:30:06.349Z,16.10
2019-02-19T04:31:06.342Z,15.50
2019-02-19T04:32:06.327Z,15.70
2019-02-19T04:33:06.319Z,16.70
2019-02-19T04:34:06.315Z,15.90
2019-02-19T04:35:06.306Z,16.60
2019-02-19T04:36:06.302Z,16.80
2019-02-19T04:37:06.295Z,16.70
2019-02-19T04:38:06.284Z,16.00
2019-02-19T04:39:06.275Z,16.70
2019-02-19T04:40:06.263Z,16.60
2019-02-19T04:41:06.253Z,16.40
2019-02-19T04:42:06.255Z,16.60
2019-02-19T04:43:06.243Z,16.40
2019-02-19T04:44:06.231Z,15.70
2019-02-19T04:45:06.225Z,16.00
2019-02-19T04:46:06.216Z,16.30
2019-02-19T04:47:06.209Z,16.10
2019-02-19T04:48:06.207Z,16.40
2019-02-19T04:49:06.197Z,15.70
2019-02-19T04:50:06.188Z,17.20
2019-02-19T04:51:06.181Z,16.30
2019-02-19T04:52:06.170Z,16.20
2019-02-19T04:53:06.160Z,16.20
2019-02-19T04:54:06.175Z,16.30
2019-02-19T04:55:06.141Z,15.90
2019-02-19T04:56:06.141Z,17.70
2019-02-19T04:57:06.152Z,16.80
2019-02-19T04:58:06.117Z,16.50
2019-02-19T04:59:06.110Z,17.20
2019-02-19T05:00:06.103Z,17.70
2019-02-19T05:01:06.098Z,17.40
2019-02-19T05:02:06.090Z,17.20
2019-02-19T05:03:06.081Z,17.10
2019-02-19T05:04:06.072Z,17.20
2019-02-19T05:05:06.074Z,18.40
2019-02-19T05:06:06.053Z,17.60
2019-02-19T05:07:06.048Z,18.50
2019-02-19T05:08:06.042Z,17.50
2019-02-19T05:09:06.032Z,18.40
2019-02-19T05:10:06.029Z,18.50
2019-02-19T05:11:06.015Z,19.10
2019-02-19T05:12:06.010Z,17.30
2019-02-19T05:13:05.992Z,18.20
2019-02-19T05:14:05.988Z,17.80
2019-02-19T05:15:05.982Z,18.70
2019-02-19T05:16:05.967Z,19.50
2019-02-19T05:17:05.959Z,18.70
2019-02-19T05:18:05.955Z,20.30
2019-02-19T05:19:05.946Z,19.60
2019-02-19T05:20:05.951Z,19.30
2019-02-19T05:21:05.933Z,18.70
2019-02-19T05:22:05.926Z,20.20
2019-02-19T05:23:07.500Z,19.90
2019-02-19T05:24:05.906Z,19.70
2019-02-19T05:25:05.895Z,18.70
2019-02-19T05:26:05.889Z,19.40
2019-02-19T05:27:05.879Z,20.40
2019-02-19T05:28:05.873Z,19.20
2019-02-19T05:29:05.866Z,19.80
2019-02-19T05:30:05.851Z,20.70
2019-02-19T05:31:05.844Z,19.10
2019-02-19T05:32:05.841Z,20.00
2019-02-19T05:33:05.831Z,20.60
2019-02-19T05:34:05.825Z,20.00
2019-02-19T05:35:05.821Z,20.70
2019-02-19T05:36:05.808Z,20.30
2019-02-19T05:37:05.807Z,20.90
2019-02-19T05:38:05.785Z,22.20
2019-02-19T05:39:05.791Z,21.40
2019-02-19T05:40:05.777Z,21.50
2019-02-19T05:41:05.768Z,21.40
2019-02-19T05:42:05.761Z,21.30
2019-02-19T05:43:05.754Z,21.30
2019-02-19T05:44:05.750Z,22.80
2019-02-19T05:45:05.731Z,22.80
2019-02-19T05:46:05.728Z,22.50
2019-02-19T05:47:05.717Z,22.40
2019-02-19T05:48:05.705Z,22.00
2019-02-19T05:49:05.701Z,21.10
2019-02-19T05:50:05.685Z,22.20
2019-02-19T05:51:05.676Z,23.30
2019-02-19T05:52:05.674Z,23.00
2019-02-19T05:53:05.664Z,23.20
2019-02-19T05:54:05.658Z,22.60
2019-02-19T05:55:05.648Z,23.90
2019-02-19T05:56:05.688Z,22.70
2019-02-19T05:57:05.627Z,23.40
2019-02-19T05:58:05.619Z,22.00
2019-02-19T05:59:05.625Z,22.90
2019-02-19T06:00:05.608Z,23.10
2019-02-19T06:01:05.601Z,23.10
2019-02-19T06:02:05.586Z,23.60
2019-02-19T06:03:05.579Z,23.10
2019-02-19T06:04:05.575Z,23.20
2019-02-19T06:05:05.926Z,23.00
2019-02-19T06:06:05.553Z,23.90
2019-02-19T06:07:05.546Z,24.60
2019-02-19T06:08:05.532Z,23.90
2019-02-19T06:09:05.527Z,24.10
2019-02-19T06:10:05.516Z,23.50
2019-02-19T06:11:05.508Z,23.30
2019-02-19T06:12:05.504Z,24.60
2019-02-19T06:13:05.495Z,23.80
2019-02-19T06:14:05.489Z,24.70
2019-02-19T06:15:05.482Z,24.60
2019-02-19T06:16:05.468Z,24.10
2019-02-19T06:17:05.460Z,24.60
2019-02-19T06:18:05.455Z,25.50
2019-02-19T06:19:05.448Z,24.50
2019-02-19T06:20:05.433Z,24.60
2019-02-19T06:21:05.427Z,24.80
2019-02-19T06:22:05.412Z,24.40
2019-02-19T06:23:05.406Z,24.80
2019-02-19T06:24:05.403Z,24.80
2019-02-19T06:25:05.401Z,24.10
2019-02-19T06:26:05.385Z,24.10
2019-02-19T06:27:05.375Z,23.60
2019-02-19T06:28:05.364Z,24.20
2019-02-19T06:29:05.352Z,24.30
2019-02-19T06:30:05.346Z,22.90
2019-02-19T06:31:05.338Z,23.60
2019-02-19T06:32:05.335Z,24.10
2019-02-19T06:33:05.323Z,23.90
2019-02-19T06:34:05.312Z,23.60
2019-02-19T06:35:05.305Z,24.80
2019-02-19T06:36:05.305Z,23.80
2019-02-19T06:37:05.292Z,23.60
2019-02-19T06:38:05.282Z,23.00
2019-02-19T06:39:05.271Z,23.30
2019-02-19T06:40:05.260Z,22.80
2019-02-19T06:41:05.252Z,24.80
2019-02-19T06:42:05.243Z,23.80
2019-02-19T06:43:05.235Z,22.50
2019-02-19T06:44:05.230Z,22.40
2019-02-19T06:45:05.222Z,22.50
2019-02-19T06:46:05.211Z,23.40
2019-02-19T06:47:07.094Z,22.10
2019-02-19T06:48:05.189Z,22.50
2019-02-19T06:49:05.180Z,22.50
2019-02-19T06:50:05.174Z,21.30
2019-02-19T06:51:05.166Z,23.00
2019-02-19T06:52:05.159Z,20.80
2019-02-19T06:53:05.152Z,21.20
2019-02-19T06:54:05.138Z,21.20
2019-02-19T06:55:05.128Z,20.70
2019-02-19T06:56:05.127Z,20.80
2019-02-19T06:57:05.117Z,20.70
2019-02-19T06:58:05.109Z,20.50
2019-02-19T06:59:05.100Z,21.30
2019-02-19T07:00:05.087Z,20.80
2019-02-19T07:01:05.077Z,19.60
2019-02-19T07:02:05.065Z,20.60
2019-02-19T07:03:05.057Z,18.80
2019-02-19T07:04:05.052Z,19.90
2019-02-19T07:05:05.044Z,20.10
2019-02-19T07:06:05.031Z,19.60
2019-02-19T07:07:05.024Z,19.40
2019-02-19T07:08:05.020Z,19.50
2019-02-19T07:09:05.010Z,20.20
2019-02-19T07:10:05.003Z,19.50
2019-02-19T07:11:04.995Z,19.90
2019-02-19T07:12:04.983Z,19.70
2019-02-19T07:13:04.973Z,20.20
2019-02-19T07:14:04.965Z,19.40
2019-02-19T07:15:04.955Z,20.20
2019-02-19T07:16:04.955Z,20.10
2019-02-19T07:17:04.942Z,18.60
2019-02-19T07:18:04.931Z,18.40
2019-02-19T07:19:04.924Z,18.80
2019-02-19T07:20:04.910Z,19.80
2019-02-19T07:21:04.900Z,18.70
2019-02-19T07:22:04.898Z,18.90
2019-02-19T07:23:04.889Z,19.40
2019-02-19T07:24:04.895Z,19.40
2019-02-19T07:25:04.866Z,19.10
2019-02-19T07:26:04.861Z,19.90
2019-02-19T07:27:04.854Z,19.50
2019-02-19T07:28:04.849Z,19.90
2019-02-19T07:29:04.842Z,19.20
2019-02-19T07:30:04.830Z,19.20
2019-02-19T07:31:04.822Z,18.60
2019-02-19T07:32:04.809Z,19.30
2019-02-19T07:33:04.802Z,18.30
2019-02-19T07:34:04.789Z,18.90
2019-02-19T07:35:04.780Z,18.10
2019-02-19T07:36:04.778Z,18.90
2019-02-19T07:37:04.769Z,19.10
2019-02-19T07:38:04.755Z,19.70
2019-02-19T07:39:04.749Z,19.50
2019-02-19T07:40:04.743Z,18.70
2019-02-19T07:41:04.736Z,18.10
2019-02-19T07:42:04.730Z,19.80
2019-02-19T07:43:04.720Z,18.80
2019-02-19T07:44:04.709Z,20.40
2019-02-19T07:45:04.701Z,19.70
2019-02-19T07:46:04.695Z,19.70
2019-02-19T07:47:04.691Z,19.90
2019-02-19T07:48:04.674Z,19.90
2019-02-19T07:49:04.665Z,18.30
2019-02-19T07:50:04.656Z,19.90
2019-02-19T07:51:04.648Z,18.70
2019-02-19T07:52:04.644Z,19.60
2019-02-19T07:53:04.634Z,19.80
2019-02-19T07:54:04.621Z,18.90
2019-02-19T07:55:04.613Z,18.70
2019-02-19T07:56:04.615Z,17.70
2019-02-19T07:57:04.601Z,17.60
2019-02-19T07:58:04.595Z,17.70
2019-02-19T07:59:04.586Z,17.10
2019-02-19T08:00:04.577Z,17.20
2019-02-19T08:01:04.567Z,17.90
2019-02-19T08:02:04.559Z,18.50
2019-02-19T08:03:05.046Z,18.30
2019-02-19T08:04:04.548Z,17.60
2019-02-19T08:05:04.537Z,17.70
2019-02-19T08:06:04.528Z,18.30
2019-02-19T08:07:04.522Z,18.00
2019-02-19T08:08:04.506Z,18.00
2019-02-19T08:09:04.501Z,18.50
2019-02-19T08:10:04.499Z,17.60
2019-02-19T08:11:04.495Z,18.20
2019-02-19T08:12:04.477Z,17.80
2019-02-19T08:13:04.475Z,17.90
2019-02-19T08:14:04.462Z,18.60
2019-02-19T08:15:04.461Z,18.80
2019-02-19T08:16:04.453Z,17.90
2019-02-19T08:17:04.444Z,18.00
2019-02-19T08:18:04.435Z,18.30
2019-02-19T08:19:04.426Z,17.90
2019-02-19T08:20:04.415Z,18.60
2019-02-19T08:21:04.407Z,17.40
2019-02-19T08:22:04.395Z,18.60
2019-02-19T08:23:04.387Z,17.50
2019-02-19T08:24:04.384Z,16.90
2019-02-19T08:25:04.377Z,17.30
2019-02-19T08:26:04.363Z,17.50
2019-02-19T08:27:04.356Z,17.50
2019-02-19T08:28:04.354Z,17.20
2019-02-19T08:29:13.448Z,17.00
2019-02-19T08:30:04.338Z,17.20
2019-02-19T08:31:04.333Z,17.40
2019-02-19T08:32:04.320Z,16.10
2019-02-19T08:33:04.317Z,15.70
2019-02-19T08:34:04.305Z,15.50
2019-02-19T08:35:04.305Z,15.90
2019-02-19T08:36:04.298Z,16.00
2019-02-19T08:37:04.292Z,15.50
2019-02-19T08:38:04.284Z,14.50
2019-02-19T08:39:04.283Z,15.00
2019-02-19T08:40:04.274Z,13.90
2019-02-19T08:41:04.282Z,14.40
2019-02-19T08:42:04.268Z,14.30
2019-02-19T08:43:04.266Z,15.60
2019-02-19T08:44:04.256Z,14.20
2019-02-19T08:45:04.254Z,14.60
2019-02-19T08:46:04.255Z,14.20
2019-02-19T08:47:04.256Z,14.30
2019-02-19T08:48:04.257Z,14.00
2019-02-19T08:49:04.253Z,13.70
2019-02-19T08:50:04.250Z,13.90
2019-02-19T08:51:04.255Z,13.10
2019-02-19T08:52:04.246Z,14.10
2019-02-19T08:53:04.245Z,13.10
2019-02-19T08:54:04.249Z,12.70
2019-02-19T08:55:04.248Z,12.60
2019-02-19T08:56:04.256Z,13.70
2019-02-19T08:57:04.256Z,13.40
2019-02-19T08:58:04.250Z,14.10
2019-02-19T08:59:04.255Z,12.80
2019-02-19T09:00:04.260Z,13.30
2019-02-19T09:01:04.261Z,12.60
2019-02-19T09:02:04.262Z,13.00
2019-02-19T09:03:04.272Z,12.40
2019-02-19T09:04:04.260Z,12.50
2019-02-19T09:05:04.262Z,12.50
2019-02-19T09:06:04.266Z,12.30
2019-02-19T09:07:04.268Z,12.10
2019-02-19T09:08:04.277Z,11.60
2019-02-19T09:09:04.297Z,10.70
2019-02-19T09:10:04.284Z,11.10
2019-02-19T09:11:04.289Z,11.70
2019-02-19T09:12:04.286Z,10.50
2019-02-19T09:13:04.289Z,11.70
2019-02-19T09:14:04.298Z,11.40
2019-02-19T09:15:04.302Z,10.70
2019-02-19T09:16:04.304Z,10.40
2019-02-19T09:17:04.305Z,10.50
2019-02-19T09:18:04.315Z,10.20
2019-02-19T09:19:04.312Z,10.60
2019-02-19T09:20:04.326Z,10.30
2019-02-19T09:21:04.325Z,10.30
2019-02-19T09:22:04.331Z,10.30
2019-02-19T09:23:04.335Z,10.40
2019-02-19T09:24:09.417Z,10.20
2019-02-19T09:25:04.340Z,10.20
2019-02-19T09:26:04.346Z,9.80
2019-02-19T09:27:04.351Z,9.80
2019-02-19T09:28:04.361Z,9.70
2019-02-19T09:29:04.365Z,9.10
2019-02-19T09:30:04.367Z,9.10
2019-02-19T09:31:04.377Z,9.00
2019-02-19T09:32:04.382Z,8.60
2019-02-19T09:33:04.384Z,9.60
2019-02-19T09:34:04.390Z,8.90
2019-02-19T09:35:04.398Z,9.30
2019-02-19T09:36:04.402Z,9.20
2019-02-19T09:37:04.399Z,8.80
2019-02-19T09:38:04.405Z,8.70
2019-02-19T09:39:04.410Z,8.30
2019-02-19T09:40:04.421Z,8.30
2019-02-19T09:41:04.425Z,7.90
2019-02-19T09:42:04.431Z,8.40
2019-02-19T09:43:04.437Z,8.80
2019-02-19T09:44:04.439Z,7.90
2019-02-19T09:45:04.442Z,7.50
2019-02-19T09:46:04.451Z,7.70
2019-02-19T09:47:04.458Z,7.90
2019-02-19T09:48:04.457Z,7.90
2019-02-19T09:49:04.462Z,7.30
2019-02-19T09:50:04.463Z,8.10
2019-02-19T09:51:04.467Z,7.50
2019-02-19T09:52:04.484Z,7.90
2019-02-19T09:53:04.481Z,7.60
2019-02-19T09:54:04.512Z,7.80
2019-02-19T09:55:04.491Z,7.50
2019-02-19T09:56:04.494Z,7.70
2019-02-19T09:57:04.494Z,7.50
2019-02-19T09:58:04.495Z,7.50
2019-02-19T09:59:04.499Z,7.30
2019-02-19T10:00:04.510Z,7.30
2019-02-19T10:01:04.511Z,7.10
2019-02-19T10:02:04.510Z,7.40
2019-02-19T10:03:04.515Z,7.20
2019-02-19T10:04:04.524Z,7.00
2019-02-19T10:05:04.527Z,6.40
2019-02-19T10:06:04.533Z,6.90
2019-02-19T10:07:04.538Z,6.30
2019-02-19T10:08:04.537Z,7.30
2019-02-19T10:09:04.540Z,7.20
2019-02-19T10:10:04.545Z,6.80
2019-02-19T10:11:04.546Z,6.50
2019-02-19T10:12:04.554Z,6.50
2019-02-19T10:13:04.556Z,6.50
2019-02-19T10:14:04.559Z,6.90
2019-02-19T10:15:04.560Z,6.10
2019-02-19T10:16:04.559Z,5.90
2019-02-19T10:17:04.560Z,6.10
2019-02-19T10:18:10.320Z,5.60
2019-02-19T10:19:04.572Z,5.70
2019-02-19T10:20:04.569Z,4.90
2019-02-19T10:21:04.574Z,5.20
2019-02-19T10:22:04.578Z,5.60
2019-02-19T10:23:04.584Z,5.20
2019-02-19T10:24:04.591Z,5.80
2019-02-19T10:25:04.594Z,5.30
2019-02-19T10:26:04.596Z,5.30
2019-02-19T10:27:04.602Z,5.50
2019-02-19T10:28:04.601Z,5.50
2019-02-19T10:29:04.605Z,5.80
2019-02-19T10:30:04.611Z,4.90
2019-02-19T10:31:04.610Z,5.90
2019-02-19T10:32:05.975Z,5.10
2019-02-19T10:33:04.624Z,5.60
2019-02-19T10:34:04.625Z,5.40
2019-02-19T10:35:04.632Z,5.10
2019-02-19T10:36:04.640Z,5.00
2019-02-19T10:37:04.643Z,5.00
2019-02-19T10:38:04.652Z,5.20
2019-02-19T10:39:04.657Z,5.00
2019-02-19T10:40:04.658Z,4.90
2019-02-19T10:41:04.664Z,4.70
2019-02-19T10:42:04.671Z,5.60
2019-02-19T10:43:04.676Z,4.60
2019-02-19T10:44:04.687Z,4.60
2019-02-19T10:45:04.691Z,4.80
2019-02-19T10:46:04.696Z,4.60
2019-02-19T10:47:04.704Z,5.20
2019-02-19T10:48:04.717Z,4.50
2019-02-19T10:49:04.711Z,4.60
2019-02-19T10:50:04.721Z,5.00
2019-02-19T10:51:04.730Z,4.60
2019-02-19T10:52:04.731Z,4.60
2019-02-19T10:53:04.743Z,4.60
2019-02-19T10:54:04.745Z,5.50
2019-02-19T10:55:04.752Z,5.40
2019-02-19T10:56:04.765Z,5.20
2019-02-19T10:57:04.768Z,5.60
2019-02-19T10:58:04.771Z,5.20
2019-02-19T10:59:04.776Z,5.50
2019-02-19T11:00:04.777Z,4.90
2019-02-19T11:01:04.779Z,5.30
2019-02-19T11:02:04.789Z,5.00
2019-02-19T11:03:04.794Z,5.10
2019-02-19T11:04:04.799Z,5.00
2019-02-19T11:05:04.803Z,5.40
2019-02-19T11:06:04.805Z,5.00
2019-02-19T11:07:04.809Z,5.40
2019-02-19T11:08:04.814Z,5.50
2019-02-19T11:09:04.818Z,5.20
2019-02-19T11:10:04.817Z,5.80
2019-02-19T11:11:04.824Z,5.00
2019-02-19T11:12:04.818Z,5.00
2019-02-19T11:13:04.821Z,4.90
2019-02-19T11:14:04.824Z,4.70
2019-02-19T11:15:04.826Z,4.90
2019-02-19T11:16:04.833Z,5.20
2019-02-19T11:17:04.836Z,4.60
2019-02-19T11:18:04.840Z,5.00
2019-02-19T11:19:04.842Z,5.80
2019-02-19T11:20:04.846Z,5.40
2019-02-19T11:21:04.845Z,5.00
2019-02-19T11:22:04.851Z,5.20
2019-02-19T11:23:04.856Z,5.70
2019-02-19T11:24:04.851Z,5.90
2019-02-19T11:25:04.854Z,4.80
2019-02-19T11:26:04.851Z,5.20
2019-02-19T11:27:04.853Z,5.80
2019-02-19T11:28:04.860Z,5.10
2019-02-19T11:29:04.860Z,5.20
2019-02-19T11:30:04.861Z,5.10
2019-02-19T11:31:04.864Z,4.50
2019-02-19T11:32:04.858Z,4.40
2019-02-19T11:33:04.861Z,3.90
2019-02-19T11:34:04.863Z,4.10
2019-02-19T11:35:04.871Z,4.10
2019-02-19T11:36:04.871Z,4.00
2019-02-19T11:37:04.870Z,3.80
2019-02-19T11:38:04.866Z,4.00
2019-02-19T11:39:04.869Z,3.80
2019-02-19T11:40:04.873Z,3.80
2019-02-19T11:41:04.871Z,4.10
2019-02-19T11:42:04.947Z,3.60
2019-02-19T11:43:04.870Z,3.40
2019-02-19T11:44:04.865Z,3.30
2019-02-19T11:45:04.864Z,3.70
2019-02-19T11:46:04.864Z,3.30
2019-02-19T11:47:04.863Z,3.90
2019-02-19T11:48:04.868Z,3.70
2019-02-19T11:49:04.867Z,4.00
2019-02-19T11:50:04.868Z,3.30
2019-02-19T11:51:04.871Z,3.30
2019-02-19T11:52:04.862Z,3.50
2019-02-19T11:53:04.880Z,2.70
2019-02-19T11:54:04.864Z,3.40
2019-02-19T11:55:04.863Z,3.10
2019-02-19T11:56:04.858Z,3.60
2019-02-19T11:57:04.858Z,3.20
2019-02-19T11:58:04.851Z,3.70
2019-02-19T11:59:04.850Z,3.20
2019-02-19T12:00:04.854Z,3.40
2019-02-19T12:01:04.859Z,3.40
2019-02-19T12:02:04.855Z,3.40
2019-02-19T12:03:04.849Z,3.00
2019-02-19T12:04:04.847Z,3.60
2019-02-19T12:05:06.876Z,2.80
2019-02-19T12:06:04.847Z,3.10
2019-02-19T12:07:04.841Z,3.40
2019-02-19T12:08:04.844Z,3.50
2019-02-19T12:09:04.848Z,3.50
2019-02-19T12:10:04.834Z,3.10
2019-02-19T12:11:04.834Z,3.30
2019-02-19T12:12:04.835Z,3.00
2019-02-19T12:13:04.832Z,3.50
2019-02-19T12:14:04.828Z,3.40
2019-02-19T12:15:04.826Z,3.10
2019-02-19T12:16:04.821Z,3.10
2019-02-19T12:17:04.816Z,3.20
2019-02-19T12:18:04.817Z,3.20
2019-02-19T12:19:04.813Z,2.70
2019-02-19T12:20:04.814Z,3.10
2019-02-19T12:21:04.811Z,3.10
2019-02-19T12:22:04.812Z,3.40
2019-02-19T12:23:04.810Z,3.50
2019-02-19T12:24:04.802Z,3.50
2019-02-19T12:25:04.796Z,3.60
2019-02-19T12:26:04.798Z,3.10
2019-02-19T12:27:07.366Z,3.30
2019-02-19T12:28:04.799Z,3.40
2019-02-19T12:29:04.790Z,3.40
2019-02-19T12:30:04.784Z,3.30
2019-02-19T12:31:04.819Z,3.50
2019-02-19T12:32:04.781Z,3.60
2019-02-19T12:33:04.775Z,3.50
2019-02-19T12:34:04.774Z,3.50
2019-02-19T12:35:04.771Z,3.50
2019-02-19T12:36:04.764Z,3.30
2019-02-19T12:37:04.760Z,3.40
2019-02-19T12:38:04.760Z,3.70
2019-02-19T12:39:04.758Z,3.40
2019-02-19T12:40:04.762Z,3.00
2019-02-19T12:41:04.755Z,3.20
2019-02-19T12:42:04.748Z,3.10
2019-02-19T12:43:04.750Z,3.20
2019-02-19T12:44:04.747Z,3.70
2019-02-19T12:45:04.743Z,3.40
2019-02-19T12:46:04.742Z,3.40
2019-02-19T12:47:04.735Z,3.50
2019-02-19T12:48:04.730Z,3.20
2019-02-19T12:49:04.729Z,3.30
2019-02-19T12:50:04.721Z,3.30
2019-02-19T12:51:04.720Z,3.10
2019-02-19T12:52:04.723Z,3.60
2019-02-19T12:53:04.720Z,3.50
2019-02-19T12:54:04.718Z,3.60
2019-02-19T12:55:04.715Z,2.80
2019-02-19T12:56:04.708Z,3.30
2019-02-19T12:57:04.706Z,3.50
2019-02-19T12:58:04.707Z,3.30
2019-02-19T12:59:04.703Z,3.00
2019-02-19T13:00:04.698Z,2.80
2019-02-19T13:01:04.692Z,3.30
2019-02-19T13:02:04.687Z,2.70
2019-02-19T13:03:04.686Z,3.10
2019-02-19T13:04:04.688Z,3.00